Terminal Aerodrome Forecast
Issued by NWS

Home | Current Version | Previous Version | Text Only | Print | Product List | Glossary On
Versions: 1 2 3 4 5 6 7 8 9 10 11 12
000
FTUS41 KBTV 112333
TAFPBG
TAF
KPBG 112333Z 1200/1224 VRB03KT P6SM BKN130
     FM120700 VRB03KT 6SM BR VCSH OVC045
     FM120900 13005KT 2SM -SN BR OVC025
     FM121200 14008G18KT 1SM -SN BR OVC015
     FM122000 11004KT 3SM -SN BR SCT008 OVC015=

USA.gov is the U.S. government's official web portal to all federal, state and local government web resources and services.